Time;durP1;ratioP1;P1;durP2;ratioP2;P2;SDS_P1;SDS_P2;PMS_P1;PMS_P2;Temp;Humidity;BMP_temperature;BMP_pressure;BME280_temperature;BME280_humidity;BME280_pressure;Samples;Min_cycle;Max_cycle;Signal;HPM_P1;HPM_P2
2021/06/09 04:02:24;;;;;;;3.22;3.13;;;13.90;99.90;;;;;;5085111;23;20241;-69
2021/06/09 04:04:53;;;;;;;3.25;3.15;;;13.90;99.90;;;;;;4934752;29;20210;-70
2021/06/09 04:07:21;;;;;;;3.33;3.22;;;14.00;99.90;;;;;;4934799;29;20221;-68
2021/06/09 04:09:48;;;;;;;3.92;3.67;;;14.00;99.90;;;;;;4934509;29;20217;-67
2021/06/09 04:12:16;;;;;;;3.70;3.40;;;14.10;99.90;;;;;;4934428;29;20729;-66
2021/06/09 04:14:45;;;;;;;3.70;3.60;;;14.10;99.90;;;;;;4934340;29;20281;-68
2021/06/09 04:17:14;;;;;;;3.35;3.15;;;14.20;99.90;;;;;;4935381;29;20514;-67
2021/06/09 04:19:43;;;;;;;3.10;3.00;;;14.30;99.90;;;;;;4934377;29;20217;-68
2021/06/09 04:22:10;;;;;;;3.10;3.10;;;14.50;99.90;;;;;;4934162;29;20230;-68
2021/06/09 04:24:38;;;;;;;4.13;2.87;;;15.20;99.90;;;;;;4933643;28;20548;-68
2021/06/09 04:27:08;;;;;;;3.80;3.07;;;16.10;99.90;;;;;;4934706;29;20461;-69
2021/06/09 04:29:35;;;;;;;3.30;3.20;;;17.10;99.90;;;;;;4933653;29;20465;-69
2021/06/09 04:32:01;;;;;;;2.87;2.77;;;17.90;99.90;;;;;;4934704;29;20492;-68
2021/06/09 04:34:43;;;;;;;2.73;2.73;;;18.50;99.90;;;;;;4934331;29;20469;-68
2021/06/09 04:37:11;;;;;;;2.83;2.63;;;19.30;99.90;;;;;;4934338;29;20465;-68
2021/06/09 04:39:37;;;;;;;2.43;2.43;;;20.00;99.90;;;;;;4934155;29;20556;-68
2021/06/09 04:42:05;;;;;;;3.00;2.80;;;20.50;99.90;;;;;;4935075;29;20525;-68
2021/06/09 04:44:32;;;;;;;3.03;2.93;;;21.00;99.90;;;;;;4937919;29;20469;-68
2021/06/09 04:46:59;;;;;;;2.53;2.53;;;21.30;99.90;;;;;;4938049;29;20969;-68
2021/06/09 04:49:30;;;;;;;2.53;2.43;;;21.50;99.90;;;;;;4937837;29;20505;-68
2021/06/09 04:51:59;;;;;;;3.10;2.80;;;21.70;99.90;;;;;;4938084;29;20570;-68
2021/06/09 04:54:25;;;;;;;3.40;3.10;;;22.10;99.90;;;;;;4937007;29;20470;-68
2021/06/09 04:56:52;;;;;;;2.20;2.20;;;22.50;99.90;;;;;;4937964;29;20473;-68
2021/06/09 04:59:18;;;;;;;2.47;2.47;;;22.70;99.90;;;;;;4937392;28;20561;-68
2021/06/09 05:01:44;;;;;;;2.77;2.77;;;22.90;99.90;;;;;;4937747;29;20519;-69
2021/06/09 05:04:11;;;;;;;2.60;2.50;;;23.20;99.90;;;;;;4937588;29;20526;-68
2021/06/09 05:06:37;;;;;;;2.50;2.43;;;23.60;99.90;;;;;;4937638;29;20466;-68
2021/06/09 05:09:07;;;;;;;2.27;2.27;;;23.80;99.90;;;;;;4937362;29;20470;-69
2021/06/09 05:11:38;;;;;;;2.07;2.07;;;24.00;99.60;;;;;;4937990;28;20491;-68
2021/06/09 05:14:10;;;;;;;2.23;2.13;;;24.00;98.30;;;;;;4937069;29;20524;-68
2021/06/09 05:16:39;;;;;;;2.33;2.33;;;24.10;97.00;;;;;;4937671;29;20472;-68
2021/06/09 05:19:07;;;;;;;2.17;1.97;;;24.10;96.20;;;;;;4937144;29;20939;-68
2021/06/09 05:21:35;;;;;;;2.43;1.87;;;23.90;95.60;;;;;;4937173;29;20505;-70
2021/06/09 05:24:03;;;;;;;1.97;1.97;;;23.80;95.20;;;;;;4936807;29;20492;-71
2021/06/09 05:26:32;;;;;;;1.70;1.67;;;23.90;94.90;;;;;;4937476;29;20797;-71
2021/06/09 05:29:01;;;;;;;2.00;2.00;;;24.00;93.40;;;;;;4936835;29;20556;-71
2021/06/09 05:31:30;;;;;;;2.23;2.03;;;24.40;92.70;;;;;;4937325;29;20478;-71
2021/06/09 05:33:57;;;;;;;1.90;1.80;;;24.70;92.50;;;;;;4936564;29;21050;-70
2021/06/09 05:36:23;;;;;;;2.30;2.30;;;24.80;92.60;;;;;;4937255;29;20469;-70
2021/06/09 05:38:50;;;;;;;2.03;2.03;;;25.00;92.00;;;;;;4936750;29;20465;-70
2021/06/09 05:41:17;;;;;;;2.13;2.03;;;24.70;92.70;;;;;;4936908;29;20484;-70
2021/06/09 05:43:45;;;;;;;3.13;2.30;;;25.10;92.60;;;;;;4936345;29;20937;-70
2021/06/09 05:46:11;;;;;;;1.67;1.67;;;25.60;92.00;;;;;;4937578;29;20581;-71
2021/06/09 05:48:39;;;;;;;2.10;2.00;;;26.10;91.30;;;;;;4936705;29;20486;-70
2021/06/09 05:51:05;;;;;;;1.50;1.50;;;26.50;91.20;;;;;;4937087;29;20525;-70
2021/06/09 05:53:31;;;;;;;2.00;1.90;;;26.50;90.40;;;;;;4935971;29;20880;-71
2021/06/09 05:55:58;;;;;;;2.10;2.03;;;26.40;88.20;;;;;;4936497;29;20475;-70
2021/06/09 05:58:25;;;;;;;2.00;2.00;;;26.10;88.00;;;;;;4936240;29;20479;-70
2021/06/09 06:00:55;;;;;;;2.20;2.20;;;25.60;87.50;;;;;;4936655;29;21020;-70
2021/06/09 06:03:22;;;;;;;2.17;2.07;;;25.70;90.30;;;;;;4936053;29;20521;-70
2021/06/09 06:05:54;;;;;;;1.97;1.97;;;26.00;89.20;;;;;;4936449;29;20463;-70
2021/06/09 06:08:21;;;;;;;1.90;1.80;;;26.50;88.60;;;;;;4936366;29;20528;-70
2021/06/09 06:10:47;;;;;;;2.10;2.10;;;27.00;85.60;;;;;;4936173;29;20495;-70
2021/06/09 06:13:14;;;;;;;2.20;1.97;;;27.00;84.40;;;;;;4935791;28;20888;-70
2021/06/09 06:15:41;;;;;;;1.70;1.70;;;27.10;84.40;;;;;;4936302;29;20467;-70
2021/06/09 06:18:08;;;;;;;1.63;1.63;;;27.00;83.60;;;;;;4936197;29;20468;-70
2021/06/09 06:20:35;;;;;;;2.07;2.07;;;27.10;83.50;;;;;;4936515;29;20493;-70
2021/06/09 06:23:01;;;;;;;2.20;2.10;;;27.40;81.50;;;;;;4936059;29;20552;-69
2021/06/09 06:25:27;;;;;;;1.80;1.80;;;27.30;80.80;;;;;;4935766;29;20503;-69
2021/06/09 06:27:56;;;;;;;1.90;1.90;;;27.10;80.20;;;;;;4936102;29;20953;-69
2021/06/09 06:30:24;;;;;;;1.97;1.77;;;26.90;80.40;;;;;;4936256;29;20478;-69
2021/06/09 06:32:53;;;;;;;2.10;2.10;;;26.80;80.90;;;;;;4935986;29;20471;-70
2021/06/09 06:35:22;;;;;;;1.93;1.93;;;26.80;81.20;;;;;;4935943;29;20934;-70
2021/06/09 06:37:50;;;;;;;2.20;2.20;;;26.80;80.60;;;;;;4935946;28;20983;-69
2021/06/09 06:40:20;;;;;;;1.93;1.93;;;26.70;81.60;;;;;;4935314;29;20469;-69
2021/06/09 06:42:49;;;;;;;2.23;2.20;;;26.90;81.00;;;;;;4935030;29;20499;-69
2021/06/09 06:45:16;;;;;;;2.00;2.00;;;27.60;80.60;;;;;;4935948;29;20466;-70
2021/06/09 06:47:42;;;;;;;2.00;1.90;;;27.70;80.50;;;;;;4935642;28;20479;-69
2021/06/09 06:50:11;;;;;;;2.20;2.20;;;27.70;80.30;;;;;;4935736;29;20470;-69
2021/06/09 06:52:40;;;;;;;1.80;1.80;;;27.90;78.60;;;;;;4935625;29;20468;-69
2021/06/09 06:55:08;;;;;;;1.50;1.50;;;27.90;80.50;;;;;;4935092;29;20472;-69
2021/06/09 06:57:35;;;;;;;1.87;1.80;;;28.10;76.50;;;;;;4935740;29;20474;-69
2021/06/09 07:00:05;;;;;;;1.73;1.73;;;28.10;76.90;;;;;;4935300;29;20473;-69
2021/06/09 07:02:33;;;;;;;1.20;1.20;;;28.60;74.90;;;;;;4935333;28;20505;-69
2021/06/09 07:04:59;;;;;;;1.40;1.40;;;28.60;71.30;;;;;;4935362;29;20468;-69
2021/06/09 07:07:26;;;;;;;1.50;1.50;;;28.20;72.40;;;;;;4935476;29;20471;-69
2021/06/09 07:09:54;;;;;;;1.50;1.50;;;28.00;71.00;;;;;;4934863;29;20472;-69
2021/06/09 07:12:20;;;;;;;1.20;1.20;;;28.50;72.10;;;;;;4935200;29;20485;-69
2021/06/09 07:14:46;;;;;;;0.90;0.90;;;28.40;67.50;;;;;;4934590;29;20806;-69
2021/06/09 07:17:14;;;;;;;1.77;0.97;;;27.70;68.00;;;;;;4935466;29;20470;-69
2021/06/09 07:19:42;;;;;;;1.27;1.10;;;27.80;69.30;;;;;;4936363;29;20482;-73
2021/06/09 07:22:09;;;;;;;1.27;1.27;;;28.00;68.40;;;;;;4939226;29;20491;-67
2021/06/09 07:24:36;;;;;;;1.07;1.07;;;28.30;67.50;;;;;;4934470;28;20510;-67
2021/06/09 07:27:05;;;;;;;0.90;0.90;;;28.80;64.90;;;;;;4935672;29;20475;-67
2021/06/09 07:29:32;;;;;;;1.10;1.10;;;28.80;64.30;;;;;;4934568;29;20917;-67
2021/06/09 07:32:00;;;;;;;1.10;1.10;;;28.80;64.40;;;;;;4935384;29;20488;-68
2021/06/09 07:34:26;;;;;;;1.30;1.30;;;28.90;64.00;;;;;;4934769;29;20477;-67
2021/06/09 07:36:59;;;;;;;1.10;1.10;;;29.10;64.80;;;;;;4935110;29;20468;-67
2021/06/09 07:39:31;;;;;;;1.50;1.40;;;29.10;63.80;;;;;;4934751;29;20527;-67
2021/06/09 07:41:59;;;;;;;1.27;1.27;;;29.20;64.90;;;;;;4935075;28;20515;-66
2021/06/09 07:44:28;;;;;;;1.50;1.50;;;29.40;63.70;;;;;;4934234;29;20531;-66
2021/06/09 07:46:57;;;;;;;1.33;1.33;;;29.40;65.10;;;;;;4935335;29;20463;-66
2021/06/09 07:49:24;;;;;;;1.60;1.60;;;29.40;63.80;;;;;;4935176;29;20563;-68
2021/06/09 07:51:50;;;;;;;1.30;1.30;;;29.70;64.40;;;;;;4935129;28;20990;-67
2021/06/09 07:54:18;;;;;;;1.27;1.20;;;30.00;63.50;;;;;;4934491;29;20992;-67
2021/06/09 07:56:45;;;;;;;1.10;1.10;;;30.00;62.90;;;;;;4935083;29;20469;-67
2021/06/09 07:59:14;;;;;;;1.20;1.20;;;30.00;63.10;;;;;;4934997;29;20560;-67
2021/06/09 08:01:44;;;;;;;2.00;1.20;;;30.00;63.10;;;;;;4935363;29;20524;-68
2021/06/09 08:04:11;;;;;;;1.50;1.50;;;30.10;63.10;;;;;;4934869;29;20887;-67
2021/06/09 08:06:38;;;;;;;1.50;1.40;;;30.10;63.00;;;;;;4935400;29;20608;-68
2021/06/09 08:09:05;;;;;;;1.47;1.47;;;30.10;62.90;;;;;;4934515;28;20477;-67
2021/06/09 08:11:32;;;;;;;1.40;1.40;;;30.10;61.70;;;;;;4935126;29;20543;-67
2021/06/09 08:13:59;;;;;;;1.53;1.50;;;30.00;62.60;;;;;;4933948;29;20501;-67
2021/06/09 08:16:27;;;;;;;1.40;1.40;;;30.10;61.30;;;;;;4934504;29;20470;-67
2021/06/09 08:18:55;;;;;;;1.33;1.33;;;29.70;61.60;;;;;;4937781;29;20478;-67
2021/06/09 08:21:25;;;;;;;1.77;1.77;;;29.20;63.60;;;;;;4938316;28;20495;-67
2021/06/09 08:23:52;;;;;;;1.50;1.40;;;29.10;64.20;;;;;;4937774;29;20472;-67
2021/06/09 08:26:20;;;;;;;1.60;1.60;;;28.80;63.60;;;;;;4938498;29;20693;-67
2021/06/09 08:28:47;;;;;;;2.67;1.60;;;28.70;65.00;;;;;;4937909;29;20467;-68
2021/06/09 08:31:17;;;;;;;1.70;1.70;;;28.60;64.00;;;;;;4938155;29;20579;-67
2021/06/09 08:33:44;;;;;;;1.93;1.47;;;28.40;65.20;;;;;;4937931;28;20847;-67
2021/06/09 08:36:13;;;;;;;1.30;1.30;;;28.20;66.10;;;;;;4938590;29;20816;-68
2021/06/09 08:38:40;;;;;;;1.33;1.33;;;28.30;65.60;;;;;;4937982;29;20526;-68
2021/06/09 08:41:08;;;;;;;1.77;1.70;;;28.50;65.30;;;;;;4937897;29;20559;-67
2021/06/09 08:43:35;;;;;;;1.40;1.40;;;28.90;64.60;;;;;;4937382;29;20946;-68
2021/06/09 08:46:02;;;;;;;1.50;1.50;;;28.80;64.00;;;;;;4938203;28;20544;-67
2021/06/09 08:48:29;;;;;;;1.10;1.10;;;28.70;62.10;;;;;;4937950;29;20472;-67
2021/06/09 08:50:57;;;;;;;1.37;1.37;;;28.60;63.60;;;;;;4937851;29;20492;-67
2021/06/09 08:53:25;;;;;;;1.57;1.47;;;29.00;64.50;;;;;;4937815;29;20554;-67
2021/06/09 08:55:52;;;;;;;1.30;1.30;;;29.00;65.00;;;;;;4937433;29;20503;-67
2021/06/09 08:58:18;;;;;;;1.40;1.40;;;28.80;64.10;;;;;;4937211;28;20476;-67
2021/06/09 09:00:46;;;;;;;1.60;1.60;;;28.50;64.80;;;;;;4937343;29;20495;-67
2021/06/09 09:03:12;;;;;;;1.47;1.47;;;28.40;64.90;;;;;;4936373;29;20872;-67
2021/06/09 09:05:39;;;;;;;1.30;1.30;;;28.50;64.90;;;;;;4936741;29;20468;-67
2021/06/09 09:08:06;;;;;;;1.50;1.50;;;28.60;64.00;;;;;;4936368;28;20476;-67
2021/06/09 09:10:35;;;;;;;1.20;1.20;;;28.40;59.40;;;;;;4935999;29;20491;-67
2021/06/09 09:13:01;;;;;;;1.17;1.13;;;28.30;61.60;;;;;;4935839;29;20495;-67
2021/06/09 09:15:28;;;;;;;1.50;1.50;;;28.20;64.50;;;;;;4936625;29;20531;-67
2021/06/09 09:17:57;;;;;;;1.23;1.23;;;28.10;63.80;;;;;;4936578;29;20476;-67
2021/06/09 09:20:26;;;;;;;1.60;1.50;;;28.20;64.50;;;;;;4936240;29;20481;-67
2021/06/09 09:22:57;;;;;;;1.40;1.40;;;28.20;65.40;;;;;;4936299;29;20817;-67
2021/06/09 09:25:23;;;;;;;2.90;1.80;;;28.30;63.50;;;;;;4935930;29;20576;-67
2021/06/09 09:27:55;;;;;;;1.30;1.30;;;28.30;64.30;;;;;;4935695;29;20472;-69
2021/06/09 09:30:22;;;;;;;1.17;1.17;;;28.30;64.20;;;;;;4935379;29;20488;-69
2021/06/09 09:33:16;;;;;;;1.10;1.10;;;28.20;62.60;;;;;;4935493;28;20508;-69
2021/06/09 09:35:45;;;;;;;1.20;1.20;;;28.20;63.20;;;;;;4926875;29;20535;-69
2021/06/09 09:38:17;;;;;;;1.23;1.23;;;28.20;62.20;;;;;;4935932;29;20560;-69
2021/06/09 09:41:00;;;;;;;1.13;1.13;;;28.30;63.70;;;;;;4935573;29;20497;-69
2021/06/09 09:43:47;;;;;;;1.13;1.13;;;28.20;62.50;;;;;;4935247;28;20482;-69
2021/06/09 09:46:15;;;;;;;1.80;1.80;;;28.10;60.90;;;;;;4935723;29;20538;-70
2021/06/09 09:48:57;;;;;;;1.53;1.50;;;27.80;60.80;;;;;;4935643;29;20461;-69
2021/06/09 09:51:26;;;;;;;1.10;1.10;;;27.70;62.00;;;;;;4936024;29;20489;-69
2021/06/09 09:53:55;;;;;;;1.27;1.27;;;27.50;62.20;;;;;;4935022;29;21111;-69
2021/06/09 09:56:22;;;;;;;1.60;1.40;;;27.40;62.50;;;;;;4935672;29;20552;-69
2021/06/09 09:58:54;;;;;;;1.40;1.40;;;27.30;62.20;;;;;;4934949;29;20487;-70
2021/06/09 10:01:23;;;;;;;1.43;1.43;;;27.20;60.90;;;;;;4935024;29;39200;-70
2021/06/09 10:03:51;;;;;;;2.50;2.30;;;27.10;62.80;;;;;;4936415;29;20465;-70
2021/06/09 10:06:23;;;;;;;1.43;1.43;;;27.10;62.00;;;;;;4937196;29;20473;-70
2021/06/09 10:08:51;;;;;;;1.37;1.37;;;27.10;63.00;;;;;;4936027;29;20944;-69
2021/06/09 10:11:19;;;;;;;1.33;1.33;;;27.10;63.60;;;;;;4936387;29;20482;-70
2021/06/09 10:13:46;;;;;;;1.43;1.30;;;26.80;62.20;;;;;;4935671;29;20489;-69
2021/06/09 10:16:28;;;;;;;1.30;1.30;;;26.70;63.70;;;;;;4936709;29;20465;-70
2021/06/09 10:19:06;;;;;;;1.37;1.37;;;26.70;63.10;;;;;;4936273;28;20765;-70
2021/06/09 10:21:33;;;;;;;1.90;1.90;;;26.80;63.90;;;;;;4936148;29;20860;-69
2021/06/09 10:24:01;;;;;;;1.30;1.30;;;26.80;64.30;;;;;;4935935;29;20696;-70
2021/06/09 10:26:28;;;;;;;2.03;1.93;;;26.80;64.20;;;;;;4936615;29;20568;-69
2021/06/09 10:29:04;;;;;;;1.60;1.60;;;26.80;63.70;;;;;;4935555;28;20986;-70
2021/06/09 10:31:34;;;;;;;1.50;1.50;;;26.80;64.50;;;;;;4936514;29;20485;-70
2021/06/09 10:34:00;;;;;;;1.70;1.70;;;26.80;64.40;;;;;;4935824;29;20489;-69
2021/06/09 10:36:27;;;;;;;1.83;1.83;;;26.80;63.40;;;;;;4936072;29;20524;-70
2021/06/09 10:38:54;;;;;;;1.40;1.40;;;26.90;64.10;;;;;;4935663;28;20593;-70
2021/06/09 10:41:23;;;;;;;1.60;1.60;;;26.90;63.40;;;;;;4935468;29;20485;-70
2021/06/09 10:43:53;;;;;;;1.37;1.37;;;26.80;63.20;;;;;;4935024;29;20458;-70
2021/06/09 10:46:24;;;;;;;1.40;1.40;;;26.90;61.90;;;;;;4935172;29;20476;-70
2021/06/09 10:48:55;;;;;;;1.20;1.20;;;26.90;60.60;;;;;;4936358;29;20465;-70
2021/06/09 10:51:23;;;;;;;1.47;1.47;;;26.90;59.80;;;;;;4936493;29;20516;-70
2021/06/09 10:53:50;;;;;;;1.40;1.40;;;27.00;61.00;;;;;;4936370;29;20505;-69
2021/06/09 10:56:17;;;;;;;1.63;1.63;;;27.20;62.10;;;;;;4936832;29;20485;-69
2021/06/09 10:58:45;;;;;;;1.80;1.80;;;27.40;63.10;;;;;;4935251;29;20941;-70
2021/06/09 11:01:12;;;;;;;1.97;1.87;;;27.30;63.30;;;;;;4935443;29;20497;-69
2021/06/09 11:03:43;;;;;;;2.03;1.90;;;27.50;61.30;;;;;;4935135;28;20482;-68
2021/06/09 11:06:11;;;;;;;1.80;1.80;;;27.50;60.80;;;;;;4935542;29;20476;-69
2021/06/09 11:08:37;;;;;;;1.87;1.77;;;27.60;62.20;;;;;;4935165;29;20955;-70
2021/06/09 11:11:16;;;;;;;1.70;1.60;;;27.90;62.00;;;;;;4935102;29;20996;-69
2021/06/09 11:13:46;;;;;;;1.80;1.80;;;28.00;62.10;;;;;;4934481;29;20486;-69
2021/06/09 11:16:16;;;;;;;2.30;2.20;;;28.10;62.80;;;;;;4935690;29;20468;-70
2021/06/09 11:18:44;;;;;;;1.90;1.90;;;28.00;60.60;;;;;;4935667;28;20845;-69
2021/06/09 11:21:15;;;;;;;2.13;2.00;;;27.60;62.20;;;;;;4935250;29;20550;-69
2021/06/09 11:23:43;;;;;;;2.00;2.00;;;27.40;61.00;;;;;;4934832;29;20471;-69
2021/06/09 11:26:24;;;;;;;2.23;2.23;;;27.30;63.90;;;;;;4935236;29;20495;-69
2021/06/09 11:28:51;;;;;;;1.90;1.90;;;27.20;62.00;;;;;;4934629;29;20851;-69
2021/06/09 11:31:23;;;;;;;1.80;1.73;;;27.20;62.40;;;;;;4935522;29;20494;-69
2021/06/09 11:33:55;;;;;;;1.70;1.70;;;27.30;63.90;;;;;;4934987;29;20593;-69
2021/06/09 11:36:34;;;;;;;1.93;1.93;;;27.40;63.50;;;;;;4935371;29;20869;-70
2021/06/09 11:39:05;;;;;;;1.70;1.70;;;27.40;62.60;;;;;;4934777;29;20480;-67
2021/06/09 11:41:37;;;;;;;3.23;3.03;;;27.40;63.10;;;;;;4935128;29;20518;-67
2021/06/09 11:44:05;;;;;;;1.70;1.70;;;27.30;62.60;;;;;;4934373;29;20490;-66
2021/06/09 11:46:33;;;;;;;3.20;2.97;;;27.10;63.80;;;;;;4935069;29;20471;-67
2021/06/09 11:49:03;;;;;;;1.77;1.67;;;27.20;64.60;;;;;;4934829;29;20471;-67
2021/06/09 11:51:33;;;;;;;1.80;1.80;;;27.40;63.50;;;;;;4934314;29;20491;-68
2021/06/09 11:54:03;;;;;;;1.53;1.53;;;27.50;62.30;;;;;;4934151;28;20503;-69
2021/06/09 11:56:31;;;;;;;2.00;2.00;;;27.60;62.00;;;;;;4935535;29;20467;-70
2021/06/09 11:59:00;;;;;;;1.87;1.77;;;27.50;61.20;;;;;;4935221;29;21077;-69
2021/06/09 12:01:34;;;;;;;1.83;1.77;;;27.50;62.00;;;;;;4935155;29;20501;-69
2021/06/09 12:04:16;;;;;;;2.30;2.20;;;27.60;60.40;;;;;;4934862;29;20489;-69
2021/06/09 12:06:46;;;;;;;1.93;1.93;;;27.40;61.20;;;;;;4935359;29;20832;-68
2021/06/09 12:09:13;;;;;;;2.00;2.00;;;27.20;59.90;;;;;;4934758;29;20950;-68
2021/06/09 12:11:41;;;;;;;2.30;2.30;;;27.30;62.00;;;;;;4934795;29;20522;-68
2021/06/09 12:14:16;;;;;;;2.10;2.00;;;27.40;61.70;;;;;;4933698;29;20487;-68
2021/06/09 12:16:42;;;;;;;2.10;2.10;;;27.50;61.70;;;;;;4934923;29;20521;-69
2021/06/09 12:19:31;;;;;;;2.07;2.07;;;27.60;61.90;;;;;;4934383;29;20471;-69
2021/06/09 12:22:03;;;;;;;2.10;2.00;;;27.60;61.70;;;;;;4934516;29;20491;-68
2021/06/09 12:24:29;;;;;;;1.80;1.80;;;27.70;62.30;;;;;;4933714;29;20471;-69
2021/06/09 12:26:59;;;;;;;1.97;1.97;;;27.90;61.80;;;;;;4934557;29;20995;-68
2021/06/09 12:29:27;;;;;;;2.23;2.23;;;27.90;61.90;;;;;;4933916;29;20985;-68
2021/06/09 12:31:55;;;;;;;1.80;1.80;;;27.80;61.50;;;;;;4934541;29;20490;-69
2021/06/09 12:34:26;;;;;;;1.83;1.73;;;27.80;61.80;;;;;;4934139;29;20493;-69
2021/06/09 12:36:54;;;;;;;2.50;2.40;;;27.80;61.90;;;;;;4934455;29;20491;-69
2021/06/09 12:39:24;;;;;;;2.70;2.60;;;27.70;62.00;;;;;;4934104;29;20619;-68
2021/06/09 12:41:51;;;;;;;2.00;2.00;;;27.80;62.50;;;;;;4934574;29;20509;-69
2021/06/09 12:44:18;;;;;;;2.20;2.10;;;28.00;62.90;;;;;;4933510;29;20989;-69
2021/06/09 12:46:56;;;;;;;2.00;2.00;;;28.00;61.70;;;;;;4934749;29;20463;-69
2021/06/09 12:49:28;;;;;;;2.03;2.03;;;28.20;62.20;;;;;;4934324;29;20478;-68
2021/06/09 12:52:08;;;;;;;2.93;2.10;;;28.30;63.30;;;;;;4934641;28;20500;-68
2021/06/09 12:54:36;;;;;;;4.47;2.20;;;28.20;61.30;;;;;;4933845;29;20927;-68
2021/06/09 12:57:05;;;;;;;2.03;2.03;;;28.30;62.60;;;;;;4934549;29;20484;-68
2021/06/09 12:59:37;;;;;;;2.43;2.43;;;28.10;62.10;;;;;;4933878;29;20469;-68
2021/06/09 13:02:04;;;;;;;2.37;2.30;;;28.10;61.60;;;;;;4934310;29;20506;-67
2021/06/09 13:04:40;;;;;;;2.50;2.50;;;28.10;61.50;;;;;;4936895;29;20473;-68
2021/06/09 13:07:08;;;;;;;2.60;2.60;;;28.00;62.60;;;;;;4938156;29;20461;-68
2021/06/09 13:09:37;;;;;;;2.77;2.57;;;28.00;62.50;;;;;;4936888;28;20485;-70
2021/06/09 13:12:05;;;;;;;2.73;2.63;;;27.90;62.10;;;;;;4937362;29;20489;-70
2021/06/09 13:14:33;;;;;;;2.47;2.47;;;27.90;62.20;;;;;;4936620;29;21006;-72
2021/06/09 13:17:08;;;;;;;2.60;2.60;;;28.00;63.30;;;;;;4937737;29;20798;-70
2021/06/09 13:19:35;;;;;;;3.00;3.00;;;28.10;62.40;;;;;;4937518;29;20469;-70
2021/06/09 13:22:04;;;;;;;2.77;2.70;;;27.90;61.40;;;;;;4937366;29;20863;-70
2021/06/09 13:24:34;;;;;;;2.70;2.70;;;27.80;62.30;;;;;;4937122;29;20468;-70
2021/06/09 13:27:07;;;;;;;4.23;2.83;;;27.80;62.40;;;;;;4936978;29;20974;-70
2021/06/09 13:29:38;;;;;;;2.70;2.60;;;27.70;63.00;;;;;;4936890;29;20508;-69
2021/06/09 13:32:17;;;;;;;2.70;2.70;;;27.60;63.10;;;;;;4937510;29;20492;-69
2021/06/09 13:34:46;;;;;;;2.63;2.40;;;27.70;61.70;;;;;;4936968;29;20493;-69
2021/06/09 13:37:18;;;;;;;2.80;2.80;;;27.70;62.20;;;;;;4937247;29;20485;-70
2021/06/09 13:39:47;;;;;;;2.77;2.67;;;27.80;64.00;;;;;;4936387;29;20532;-70
2021/06/09 13:42:17;;;;;;;2.60;2.60;;;27.80;62.80;;;;;;4936812;29;20879;-70
2021/06/09 13:44:45;;;;;;;2.60;2.40;;;27.80;64.50;;;;;;4936349;29;20465;-68
2021/06/09 13:47:20;;;;;;;2.77;2.67;;;27.90;63.40;;;;;;4937256;29;20465;-67
2021/06/09 13:49:54;;;;;;;2.77;2.67;;;28.00;63.70;;;;;;4936500;29;20812;-68
2021/06/09 13:52:29;;;;;;;2.80;2.80;;;28.20;63.30;;;;;;4936807;29;20801;-68
2021/06/09 13:54:56;;;;;;;2.63;2.63;;;28.20;62.70;;;;;;4936419;29;20474;-67
2021/06/09 13:57:28;;;;;;;2.70;2.60;;;28.20;62.10;;;;;;4936922;29;20522;-67
2021/06/09 13:59:56;;;;;;;3.10;3.10;;;28.40;62.80;;;;;;4936418;29;20564;-70
2021/06/09 14:02:27;;;;;;;2.50;2.50;;;28.30;61.90;;;;;;4936440;29;20816;-70
2021/06/09 14:05:02;;;;;;;3.03;3.03;;;28.50;62.60;;;;;;4936977;29;20468;-70
2021/06/09 14:07:28;;;;;;;2.50;2.50;;;28.70;61.20;;;;;;4937045;29;20475;-70
2021/06/09 14:10:03;;;;;;;2.80;2.80;;;28.80;62.30;;;;;;4936322;29;20478;-70
2021/06/09 14:12:36;;;;;;;2.53;2.53;;;28.70;62.20;;;;;;4936730;29;20846;-70
2021/06/09 14:15:10;;;;;;;2.93;2.83;;;28.80;61.20;;;;;;4935244;29;20460;-70
2021/06/09 14:17:37;;;;;;;2.67;2.57;;;28.70;60.50;;;;;;4937095;29;20487;-70
2021/06/09 14:20:07;;;;;;;2.43;2.40;;;28.60;62.90;;;;;;4936449;29;20468;-70
2021/06/09 14:22:35;;;;;;;2.20;2.20;;;28.60;62.60;;;;;;4936272;28;20464;-70
2021/06/09 14:25:11;;;;;;;2.80;2.80;;;28.60;61.80;;;;;;4935684;29;20486;-70
2021/06/09 14:27:53;;;;;;;2.37;2.37;;;28.70;61.30;;;;;;4936008;29;20448;-69
2021/06/09 14:30:22;;;;;;;3.40;3.37;;;28.60;62.10;;;;;;4936489;29;20460;-72
2021/06/09 14:33:18;;;;;;;2.90;2.90;;;28.50;62.70;;;;;;4935643;29;20464;-70
2021/06/09 14:35:49;;;;;;;3.60;3.40;;;28.40;62.10;;;;;;4935118;29;20472;-70
2021/06/09 14:38:18;;;;;;;3.10;2.90;;;28.30;63.40;;;;;;4936061;28;20474;-70
2021/06/09 14:40:45;;;;;;;2.93;2.93;;;28.30;64.10;;;;;;4935598;29;20567;-70
2021/06/09 14:43:14;;;;;;;3.07;3.07;;;28.30;64.40;;;;;;4935331;29;20868;-70
2021/06/09 14:45:42;;;;;;;2.97;2.93;;;28.30;65.00;;;;;;4935546;29;20842;-70
2021/06/09 14:48:18;;;;;;;2.80;2.80;;;28.40;64.10;;;;;;4935411;28;20518;-70
2021/06/09 14:51:01;;;;;;;3.00;3.00;;;28.50;64.70;;;;;;4935647;29;20545;-70
2021/06/09 14:53:27;;;;;;;2.63;2.63;;;28.20;63.60;;;;;;4935335;29;21054;-71
2021/06/09 14:55:55;;;;;;;3.07;2.97;;;28.10;64.80;;;;;;4935113;29;20470;-70
2021/06/09 14:58:23;;;;;;;3.13;3.00;;;28.20;65.40;;;;;;4935026;29;20497;-71
2021/06/09 15:00:49;;;;;;;3.10;3.00;;;28.30;64.50;;;;;;4935083;29;20895;-71
2021/06/09 15:03:15;;;;;;;3.50;3.40;;;28.00;63.90;;;;;;4935655;29;20466;-71
2021/06/09 15:05:42;;;;;;;2.73;2.73;;;28.10;65.40;;;;;;4935115;29;20476;-71
2021/06/09 15:08:09;;;;;;;3.07;3.07;;;28.10;65.40;;;;;;4935327;29;20476;-71
2021/06/09 15:10:36;;;;;;;3.20;2.90;;;28.00;64.20;;;;;;4934907;29;20504;-71
2021/06/09 15:13:03;;;;;;;3.53;3.23;;;28.10;63.90;;;;;;4934820;29;20493;-71
2021/06/09 15:15:30;;;;;;;3.17;3.07;;;28.30;65.40;;;;;;4934856;29;20497;-71
2021/06/09 15:17:56;;;;;;;3.53;3.23;;;28.50;64.80;;;;;;4935263;29;20484;-71
2021/06/09 15:20:22;;;;;;;3.27;3.27;;;28.60;64.00;;;;;;4935142;29;20465;-70
2021/06/09 15:22:49;;;;;;;3.60;3.50;;;28.70;64.70;;;;;;4935200;29;20892;-70
2021/06/09 15:25:15;;;;;;;3.53;3.50;;;28.70;64.00;;;;;;4934814;29;20470;-71
2021/06/09 15:27:41;;;;;;;3.70;3.50;;;28.70;64.20;;;;;;4934706;29;20537;-69
2021/06/09 15:30:09;;;;;;;3.20;3.10;;;28.70;63.10;;;;;;4934858;29;20471;-70
2021/06/09 15:32:36;;;;;;;3.30;3.30;;;28.70;63.00;;;;;;4934821;29;20818;-70
2021/06/09 15:35:03;;;;;;;4.27;3.57;;;28.70;63.90;;;;;;4934587;29;20490;-69
2021/06/09 15:37:29;;;;;;;3.33;3.23;;;28.70;63.20;;;;;;4934689;29;20478;-70
2021/06/09 15:39:55;;;;;;;3.00;3.00;;;28.70;63.50;;;;;;4934283;29;20553;-70
2021/06/09 15:42:21;;;;;;;3.53;3.43;;;28.70;64.30;;;;;;4934273;29;20947;-70
2021/06/09 15:44:47;;;;;;;4.00;3.63;;;28.70;64.00;;;;;;4934303;29;20458;-70
2021/06/09 15:47:14;;;;;;;3.77;3.57;;;28.50;64.00;;;;;;4935704;29;20502;-67
2021/06/09 15:49:43;;;;;;;4.10;4.00;;;28.30;65.70;;;;;;4934781;29;20466;-67
2021/06/09 15:52:09;;;;;;;3.33;3.23;;;28.10;65.00;;;;;;4934547;29;20485;-67
2021/06/09 15:54:36;;;;;;;4.03;3.83;;;28.00;64.30;;;;;;4934054;29;20863;-67
2021/06/09 15:57:03;;;;;;;3.17;3.17;;;27.80;65.70;;;;;;4934612;29;20521;-67
2021/06/09 15:59:29;;;;;;;3.10;3.10;;;27.60;66.40;;;;;;4934443;29;20473;-67
2021/06/09 16:01:55;;;;;;;4.10;3.90;;;27.60;66.60;;;;;;4934778;29;20536;-67
2021/06/09 16:04:22;;;;;;;3.13;3.03;;;27.70;66.90;;;;;;4934576;29;20466;-68
2021/06/09 16:06:49;;;;;;;4.60;4.50;;;27.70;66.80;;;;;;4935090;29;20470;-66
2021/06/09 16:09:16;;;;;;;3.53;3.43;;;27.80;66.40;;;;;;4934152;29;20525;-67
2021/06/09 16:11:43;;;;;;;4.07;3.83;;;27.80;65.70;;;;;;4934567;28;20501;-67
2021/06/09 16:14:10;;;;;;;3.60;3.60;;;27.90;66.50;;;;;;4934103;29;20497;-67
2021/06/09 16:16:36;;;;;;;3.30;3.30;;;28.00;67.60;;;;;;4933984;29;20458;-67
2021/06/09 16:19:03;;;;;;;4.03;4.03;;;27.90;65.80;;;;;;4932883;29;20468;-68
2021/06/09 16:21:30;;;;;;;3.50;3.40;;;27.80;66.50;;;;;;4933490;28;20528;-66
2021/06/09 16:23:57;;;;;;;4.10;3.83;;;27.60;67.20;;;;;;4933678;29;20470;-65
2021/06/09 16:26:24;;;;;;;3.87;3.87;;;27.30;68.90;;;;;;4934264;29;20949;-66
2021/06/09 16:28:50;;;;;;;4.20;4.00;;;27.30;70.00;;;;;;4934234;29;20524;-66
2021/06/09 16:31:16;;;;;;;4.07;3.87;;;27.30;70.60;;;;;;4934110;29;20832;-66
2021/06/09 16:33:42;;;;;;;3.97;3.67;;;27.20;70.20;;;;;;4933842;29;20856;-67
2021/06/09 16:36:08;;;;;;;4.20;4.10;;;27.00;71.50;;;;;;4934564;29;20466;-66
2021/06/09 16:38:34;;;;;;;3.90;3.70;;;27.10;71.50;;;;;;4935677;29;20841;-66
2021/06/09 16:41:02;;;;;;;4.63;4.47;;;27.10;72.00;;;;;;4937625;29;20493;-66
2021/06/09 16:43:28;;;;;;;4.00;3.90;;;27.10;71.20;;;;;;4937504;28;20560;-68
2021/06/09 16:45:54;;;;;;;4.23;4.13;;;27.00;72.20;;;;;;4938343;29;20476;-70
2021/06/09 16:48:21;;;;;;;4.93;4.63;;;26.90;72.30;;;;;;4938064;29;20465;-69
2021/06/09 16:50:48;;;;;;;18.30;16.40;;;26.70;72.60;;;;;;4938013;29;20517;-70
2021/06/09 16:53:15;;;;;;;13.43;12.23;;;26.60;73.20;;;;;;4937871;29;20486;-69
2021/06/09 16:55:46;;;;;;;4.87;4.60;;;26.60;73.90;;;;;;4937762;29;20473;-69